Volcan De Tamasite — ECFE — position and weather

sailwx.info

Track history (hours):
 
Tides and Currents Weather Stations Pressure Air Temp Water Temp Dewpoint Dewpoint Depression Visibility Wind Speed Wind Dir Waves Ship Positions

Volcan De Tamasite

Last reported at 2015-Aug-02 21:25 UTC. Time now 2015-Aug-03 02:36 UTC.
Position N 35°38' W 002°59'.

Length 141 m; draft 5.6 m.

Type: Passenger vessel. MMSI: 224093000.

Date/timePositionNaut miles runAvg speedWind from/ knotsBaromVisibWave heightAir tempDewpointWater temp
2015-Aug-02 21:25N 35°38' W 002°59'  
2015-Jul-29 03:15N 36°12' W 003°16'1718.9
2015-Jul-29 02:22N 35°57' W 003°09'1920.3
2015-Jul-29 01:25N 35°39' W 003°00'9 0.2
2015-Jul-26 23:26N 35°47' W 003°04'2521.2
2015-Jul-26 22:16N 35°24' W 002°55'  
2015-Jul-24 04:15N 35°36' W 002°58'1620.8
2015-Jul-24 03:27N 35°19' W 002°55'3 3.2
2015-Jul-24 02:33N 35°16' W 002°56'6 6.1
2015-Jul-24 01:29N 35°23' W 002°55'2019.9
2015-Jul-24 00:30N 35°42' W 003°01'  
Track history (hours):
 
Tides and Currents Weather Stations Pressure Air Temp Water Temp Dewpoint Dewpoint Depression Visibility Wind Speed Wind Dir Waves Ship Positions

Volcan De Tamasite

Last reported at 2015-Aug-02 21:25 UTC. Time now 2015-Aug-03 02:36 UTC.
Position N 35°38' W 002°59'.

Length 141 m; draft 5.6 m.

Type: Passenger vessel. MMSI: 224093000.

Date/timePositionNaut miles runAvg speedWind from/ knotsBaromVisibWave heightAir tempDewpointWater temp
2015-Aug-02 21:25N 35°38' W 002°59'  
2015-Jul-29 03:15N 36°12' W 003°16'1718.9
2015-Jul-29 02:22N 35°57' W 003°09'1920.3
2015-Jul-29 01:25N 35°39' W 003°00'9 0.2
2015-Jul-26 23:26N 35°47' W 003°04'2521.2
2015-Jul-26 22:16N 35°24' W 002°55'  
2015-Jul-24 04:15N 35°36' W 002°58'1620.8
2015-Jul-24 03:27N 35°19' W 002°55'3 3.2
2015-Jul-24 02:33N 35°16' W 002°56'6 6.1
2015-Jul-24 01:29N 35°23' W 002°55'2019.9
2015-Jul-24 00:30N 35°42' W 003°01'  

Dump ship's entire track history